createdAt,value
2018-12-27T00:02:17.715Z,62.50
2018-12-27T00:04:44.055Z,62.70
2018-12-27T00:07:10.405Z,62.10
2018-12-27T00:09:36.769Z,62.10
2018-12-27T00:12:03.827Z,62.00
2018-12-27T00:14:30.904Z,62.60
2018-12-27T00:16:57.398Z,62.70
2018-12-27T00:19:23.814Z,62.90
2018-12-27T00:21:50.222Z,63.00
2018-12-27T00:24:16.558Z,63.10
2018-12-27T00:26:43.679Z,63.00
2018-12-27T00:29:09.996Z,63.00
2018-12-27T00:31:36.371Z,63.20
2018-12-27T00:34:02.817Z,63.20
2018-12-27T00:36:29.167Z,63.10
2018-12-27T00:38:55.491Z,63.20
2018-12-27T00:41:22.728Z,62.90
2018-12-27T00:43:49.740Z,62.90
2018-12-27T00:46:16.077Z,62.90
2018-12-27T00:48:42.327Z,63.10
2018-12-27T00:51:08.610Z,63.10
2018-12-27T00:53:34.933Z,62.90
2018-12-27T00:56:01.267Z,62.80
2018-12-27T00:58:27.655Z,62.80
2018-12-27T01:00:54.688Z,63.20
2018-12-27T01:03:20.931Z,63.10
2018-12-27T01:05:47.187Z,63.30
2018-12-27T01:08:14.154Z,62.90
2018-12-27T01:10:40.375Z,62.90
2018-12-27T01:13:06.709Z,63.00
2018-12-27T01:15:32.925Z,63.00
2018-12-27T01:17:59.108Z,62.50
2018-12-27T01:20:25.312Z,62.60
2018-12-27T01:22:51.548Z,62.10
2018-12-27T01:25:18.568Z,62.00
2018-12-27T01:27:44.768Z,62.00
2018-12-27T01:30:11.101Z,62.10
2018-12-27T01:32:38.100Z,62.10
2018-12-27T01:35:04.305Z,62.10
2018-12-27T01:37:30.554Z,62.00
2018-12-27T01:39:56.738Z,62.10
2018-12-27T01:42:22.956Z,62.60
2018-12-27T01:44:49.948Z,62.00
2018-12-27T01:47:16.187Z,62.60
2018-12-27T01:49:42.434Z,62.20
2018-12-27T01:52:09.683Z,62.20
2018-12-27T01:54:35.890Z,62.20
2018-12-27T01:57:02.132Z,61.90
2018-12-27T01:59:28.368Z,62.00
2018-12-27T02:01:54.577Z,62.00
2018-12-27T02:04:20.791Z,62.00
2018-12-27T02:06:47.163Z,62.00
2018-12-27T02:09:14.132Z,62.00
2018-12-27T02:11:40.356Z,62.00
2018-12-27T02:14:06.753Z,62.00
2018-12-27T02:16:32.964Z,62.00
2018-12-27T02:21:42.754Z,62.70
2018-12-27T02:24:09.816Z,62.40
2018-12-27T02:26:36.012Z,62.30
2018-12-27T02:29:02.236Z,62.60
2018-12-27T02:31:29.208Z,61.90
2018-12-27T02:33:55.432Z,62.00
2018-12-27T02:36:22.371Z,62.00
2018-12-27T02:38:49.330Z,62.30
2018-12-27T02:41:15.551Z,62.30
2018-12-27T02:43:41.756Z,62.50
2018-12-27T02:46:08.798Z,62.50
2018-12-27T02:48:35.008Z,62.40
2018-12-27T02:51:01.201Z,62.20
2018-12-27T02:53:27.424Z,62.60
2018-12-27T02:55:53.656Z,62.30
2018-12-27T02:58:19.860Z,62.00
2018-12-27T03:00:46.048Z,62.10
2018-12-27T03:03:12.275Z,61.80
2018-12-27T03:05:38.468Z,61.70
2018-12-27T03:08:04.700Z,61.70
2018-12-27T03:10:30.900Z,61.70
2018-12-27T03:12:57.112Z,61.80
2018-12-27T03:15:24.053Z,61.80
2018-12-27T03:17:50.995Z,61.80
2018-12-27T03:20:17.945Z,61.80
2018-12-27T03:22:44.172Z,61.80
2018-12-27T03:25:11.121Z,61.80
2018-12-27T03:27:38.062Z,62.10
2018-12-27T03:30:04.992Z,62.20
2018-12-27T03:32:31.952Z,62.10
2018-12-27T03:34:58.900Z,62.30
2018-12-27T03:37:25.832Z,62.20
2018-12-27T03:39:52.760Z,62.20
2018-12-27T03:42:19.303Z,62.00
2018-12-27T03:44:45.607Z,61.70
2018-12-27T03:47:11.819Z,62.10
2018-12-27T03:49:38.025Z,62.20
2018-12-27T03:52:04.207Z,62.10
2018-12-27T03:54:30.403Z,61.70
2018-12-27T03:56:56.624Z,61.70
2018-12-27T03:59:22.867Z,61.70
2018-12-27T04:01:49.060Z,61.70
2018-12-27T04:04:15.282Z,62.00
2018-12-27T04:06:41.500Z,62.00
2018-12-27T04:09:07.704Z,62.10
2018-12-27T04:11:34.657Z,61.90
2018-12-27T04:14:01.598Z,61.70
2018-12-27T04:16:28.556Z,61.70
2018-12-27T04:18:55.519Z,61.70
2018-12-27T04:21:21.741Z,61.70
2018-12-27T04:23:48.098Z,61.70
2018-12-27T04:26:14.268Z,61.70
2018-12-27T04:28:41.229Z,62.10
2018-12-27T04:31:07.505Z,62.10
2018-12-27T04:33:33.764Z,62.20
2018-12-27T04:36:00.774Z,62.30
2018-12-27T04:38:27.031Z,62.30
2018-12-27T04:40:54.002Z,62.10
2018-12-27T04:43:20.241Z,62.10
2018-12-27T04:45:46.540Z,62.10
2018-12-27T04:48:13.524Z,61.60
2018-12-27T04:50:39.743Z,62.00
2018-12-27T04:53:06.746Z,61.60
2018-12-27T04:55:32.964Z,61.60
2018-12-27T04:57:59.181Z,61.70
2018-12-27T05:00:25.419Z,61.70
2018-12-27T05:02:51.643Z,61.70
2018-12-27T05:05:17.879Z,61.70
2018-12-27T05:07:45.368Z,61.60
2018-12-27T05:10:11.588Z,61.60
2018-12-27T05:12:38.592Z,61.60
2018-12-27T05:15:04.833Z,61.60
2018-12-27T05:17:31.059Z,61.60
2018-12-27T05:19:57.278Z,61.60
2018-12-27T05:22:23.536Z,61.70
2018-12-27T05:24:49.794Z,61.70
2018-12-27T05:27:16.088Z,61.60
2018-12-27T05:29:43.065Z,61.60
2018-12-27T05:32:09.293Z,61.50
2018-12-27T05:34:35.903Z,61.50
2018-12-27T05:37:02.159Z,61.40
2018-12-27T05:39:28.364Z,61.40
2018-12-27T05:41:55.333Z,61.60
2018-12-27T05:44:21.554Z,61.60
2018-12-27T05:46:47.862Z,61.50
2018-12-27T05:49:14.824Z,61.50
2018-12-27T05:51:41.064Z,61.50
2018-12-27T05:54:07.285Z,61.70
2018-12-27T05:56:33.700Z,61.40
2018-12-27T05:59:00.644Z,61.50
2018-12-27T06:01:26.861Z,61.40
2018-12-27T06:03:53.146Z,61.30
2018-12-27T06:06:19.472Z,61.90
2018-12-27T06:08:45.691Z,62.00
2018-12-27T06:11:11.903Z,61.40
2018-12-27T06:13:38.140Z,61.70
2018-12-27T06:16:04.936Z,61.50
2018-12-27T06:18:31.956Z,62.00
2018-12-27T06:20:58.178Z,61.90
2018-12-27T06:23:24.420Z,62.10
2018-12-27T06:25:50.652Z,62.60
2018-12-27T06:28:17.101Z,61.40
2018-12-27T06:30:43.356Z,61.40
2018-12-27T06:33:09.568Z,61.40
2018-12-27T06:35:35.795Z,61.30
2018-12-27T06:38:02.752Z,61.40
2018-12-27T06:40:28.958Z,61.30
2018-12-27T06:42:56.195Z,61.30
2018-12-27T06:45:23.245Z,61.70
2018-12-27T06:47:50.187Z,61.40
2018-12-27T06:50:17.173Z,61.30
2018-12-27T06:52:43.399Z,61.30
2018-12-27T06:55:09.607Z,61.30
2018-12-27T06:57:35.855Z,61.30
2018-12-27T07:00:02.091Z,61.60
2018-12-27T07:02:28.323Z,61.60
2018-12-27T07:04:54.573Z,61.90
2018-12-27T07:07:20.784Z,62.00
2018-12-27T07:09:47.024Z,62.10
2018-12-27T07:12:13.281Z,61.90
2018-12-27T07:14:40.267Z,62.00
2018-12-27T07:17:06.508Z,62.00
2018-12-27T07:19:32.737Z,62.20
2018-12-27T07:21:58.956Z,62.10
2018-12-27T07:24:25.748Z,62.20
2018-12-27T07:26:52.708Z,61.50
2018-12-27T07:29:19.664Z,61.40
2018-12-27T07:31:46.152Z,61.40
2018-12-27T07:34:12.408Z,61.80
2018-12-27T07:36:38.635Z,61.90
2018-12-27T07:39:05.753Z,61.50
2018-12-27T07:41:31.984Z,61.50
2018-12-27T07:43:58.235Z,61.50
2018-12-27T07:46:25.489Z,61.90
2018-12-27T07:48:52.457Z,61.50
2018-12-27T07:51:18.691Z,61.50
2018-12-27T07:53:44.916Z,61.50
2018-12-27T07:56:11.153Z,61.50
2018-12-27T07:58:37.660Z,61.50
2018-12-27T08:03:37.044Z,61.60
2018-12-27T08:06:03.272Z,61.60
2018-12-27T08:08:29.491Z,61.60
2018-12-27T08:10:55.716Z,61.60
2018-12-27T08:13:21.945Z,61.60
2018-12-27T08:15:48.222Z,61.50
2018-12-27T08:18:14.459Z,61.50
2018-12-27T08:20:40.713Z,61.80
2018-12-27T08:23:06.944Z,62.00
2018-12-27T08:25:33.195Z,62.10
2018-12-27T08:28:00.181Z,61.60
2018-12-27T08:30:26.404Z,61.60
2018-12-27T08:32:52.684Z,61.80
2018-12-27T08:35:19.653Z,61.50
2018-12-27T08:37:46.633Z,61.60
2018-12-27T08:40:12.874Z,61.50
2018-12-27T08:42:39.091Z,61.60
2018-12-27T08:45:05.692Z,61.70
2018-12-27T08:47:31.924Z,61.70
2018-12-27T08:49:58.882Z,61.70
2018-12-27T08:52:25.132Z,61.60
2018-12-27T08:54:51.719Z,61.70
2018-12-27T08:57:18.684Z,61.70
2018-12-27T08:59:44.904Z,61.70
2018-12-27T09:02:11.880Z,61.70
2018-12-27T09:04:38.099Z,61.70
2018-12-27T09:07:11.786Z,61.70
2018-12-27T09:09:38.017Z,62.30
2018-12-27T09:12:11.260Z,61.70
2018-12-27T09:14:38.375Z,61.70
2018-12-27T09:17:04.584Z,62.50
2018-12-27T09:19:30.820Z,61.80
2018-12-27T09:21:57.065Z,61.90
2018-12-27T09:24:23.345Z,61.80
2018-12-27T09:26:51.215Z,63.00
2018-12-27T09:29:18.464Z,62.70
2018-12-27T09:31:45.425Z,62.60
2018-12-27T09:34:11.637Z,62.60
2018-12-27T09:36:38.604Z,62.70
2018-12-27T09:39:04.893Z,62.70
2018-12-27T09:41:31.118Z,62.40
2018-12-27T09:43:57.341Z,61.90
2018-12-27T09:46:23.700Z,62.20
2018-12-27T09:48:50.660Z,62.00
2018-12-27T09:51:16.911Z,62.00
2018-12-27T09:53:43.167Z,62.00
2018-12-27T09:56:09.467Z,62.00
2018-12-27T09:58:35.708Z,62.00
2018-12-27T10:01:01.971Z,62.00
2018-12-27T10:03:28.928Z,61.80
2018-12-27T10:05:56.145Z,61.90
2018-12-27T10:08:22.434Z,61.80
2018-12-27T10:10:48.727Z,61.90
2018-12-27T10:13:15.003Z,61.90
2018-12-27T10:15:42.772Z,62.10
2018-12-27T10:18:09.094Z,62.00
2018-12-27T10:20:35.338Z,62.10
2018-12-27T10:23:01.621Z,62.00
2018-12-27T10:25:27.928Z,61.90
2018-12-27T10:27:54.928Z,62.00
2018-12-27T10:30:21.192Z,62.00
2018-12-27T10:32:47.747Z,62.00
2018-12-27T10:35:13.988Z,62.10
2018-12-27T10:37:40.235Z,62.50
2018-12-27T10:40:06.496Z,62.30
2018-12-27T10:42:32.724Z,62.00
2018-12-27T10:44:59.100Z,62.00
2018-12-27T10:47:25.340Z,62.00
2018-12-27T10:49:51.603Z,62.40
2018-12-27T10:52:18.405Z,62.60
2018-12-27T10:54:44.700Z,62.00
2018-12-27T10:57:12.632Z,62.30
2018-12-27T10:59:38.892Z,62.30
2018-12-27T11:02:12.209Z,62.50
2018-12-27T11:04:39.265Z,62.00
2018-12-27T11:07:05.508Z,62.00
2018-12-27T11:09:32.105Z,62.30
2018-12-27T11:11:59.103Z,62.30
2018-12-27T11:14:25.323Z,62.30
2018-12-27T11:16:51.571Z,62.30
2018-12-27T11:19:17.800Z,62.10
2018-12-27T11:21:44.784Z,63.00
2018-12-27T11:24:11.039Z,63.10
2018-12-27T11:26:38.152Z,61.50
2018-12-27T11:29:05.133Z,61.20
2018-12-27T11:31:31.398Z,61.20
2018-12-27T11:33:57.658Z,62.30
2018-12-27T11:36:24.688Z,61.10
2018-12-27T11:38:51.664Z,62.00
2018-12-27T11:41:17.952Z,61.40
2018-12-27T11:43:45.011Z,62.30
2018-12-27T11:46:11.357Z,62.10
2018-12-27T11:48:37.651Z,61.70
2018-12-27T11:51:03.922Z,61.40
2018-12-27T11:53:30.159Z,61.90
2018-12-27T11:55:56.472Z,61.70
2018-12-27T11:58:22.768Z,62.20
2018-12-27T12:00:48.982Z,61.20
2018-12-27T12:03:15.228Z,61.00
2018-12-27T12:05:42.224Z,61.20
2018-12-27T12:08:08.491Z,61.20
2018-12-27T12:10:35.666Z,60.60
2018-12-27T12:13:02.653Z,60.60
2018-12-27T12:15:28.913Z,60.60
2018-12-27T12:17:55.241Z,60.70
2018-12-27T12:20:21.512Z,61.50
2018-12-27T12:22:48.477Z,62.30
2018-12-27T12:25:16.235Z,61.90
2018-12-27T12:27:42.511Z,61.70
2018-12-27T12:30:09.542Z,61.70
2018-12-27T12:32:35.852Z,61.50
2018-12-27T12:35:02.129Z,62.40
2018-12-27T12:37:28.423Z,62.90
2018-12-27T12:39:54.737Z,62.40
2018-12-27T12:42:32.416Z,61.50
2018-12-27T12:44:48.114Z,62.40
2018-12-27T12:47:14.420Z,62.30
2018-12-27T12:49:40.711Z,62.30
2018-12-27T12:52:06.942Z,62.30
2018-12-27T12:54:33.230Z,62.40
2018-12-27T12:56:59.477Z,61.80
2018-12-27T12:59:25.744Z,61.80
2018-12-27T13:01:52.770Z,62.40
2018-12-27T13:04:19.036Z,62.30
2018-12-27T13:06:45.312Z,62.00
2018-12-27T13:09:11.580Z,62.40
2018-12-27T13:11:37.835Z,62.40
2018-12-27T13:14:04.121Z,62.40
2018-12-27T13:16:30.389Z,62.40
2018-12-27T13:18:56.653Z,62.40
2018-12-27T13:21:22.893Z,62.40
2018-12-27T13:23:49.900Z,61.70
2018-12-27T13:26:16.144Z,61.70
2018-12-27T13:28:42.431Z,61.80
2018-12-27T13:31:08.704Z,62.00
2018-12-27T13:33:34.953Z,62.40
2018-12-27T13:36:01.283Z,62.30
2018-12-27T13:38:27.554Z,62.30
2018-12-27T13:40:53.875Z,62.40
2018-12-27T13:43:21.330Z,61.90
2018-12-27T13:45:47.692Z,62.50
2018-12-27T13:48:14.759Z,62.50
2018-12-27T13:50:42.004Z,62.50
2018-12-27T13:53:08.255Z,62.40
2018-12-27T13:55:34.544Z,62.40
2018-12-27T13:58:00.834Z,62.40
2018-12-27T14:00:27.157Z,62.40
2018-12-27T14:02:53.721Z,62.40
2018-12-27T14:05:19.971Z,62.30
2018-12-27T14:07:46.232Z,62.40
2018-12-27T14:10:12.485Z,62.40
2018-12-27T14:12:39.716Z,62.40
2018-12-27T14:15:06.720Z,62.40
2018-12-27T14:17:33.014Z,62.30
2018-12-27T14:19:59.291Z,62.40
2018-12-27T14:22:25.525Z,62.40
2018-12-27T14:24:57.693Z,62.40
2018-12-27T14:27:18.475Z,62.40
2018-12-27T14:29:44.731Z,61.80
2018-12-27T14:32:10.975Z,61.90
2018-12-27T14:34:38.562Z,61.20
2018-12-27T14:37:04.797Z,61.30
2018-12-27T14:39:31.073Z,61.30
2018-12-27T14:41:57.331Z,60.90
2018-12-27T14:44:23.608Z,61.40
2018-12-27T14:46:49.942Z,61.10
2018-12-27T14:49:16.787Z,61.30
2018-12-27T14:51:43.070Z,61.90
2018-12-27T14:54:09.343Z,61.90
2018-12-27T14:56:35.644Z,62.20
2018-12-27T14:59:01.916Z,61.80
2018-12-27T15:01:28.939Z,61.40
2018-12-27T15:03:55.204Z,61.40
2018-12-27T15:06:21.576Z,61.60
2018-12-27T15:08:47.841Z,61.50
2018-12-27T15:11:14.811Z,61.60
2018-12-27T15:13:41.150Z,61.80
2018-12-27T15:16:07.928Z,61.40
2018-12-27T15:18:35.441Z,61.00
2018-12-27T15:21:01.981Z,61.00
2018-12-27T15:23:28.998Z,60.80
2018-12-27T15:25:55.259Z,60.60
2018-12-27T15:28:21.556Z,61.00
2018-12-27T15:30:48.139Z,61.10
2018-12-27T15:33:14.410Z,61.20
2018-12-27T15:35:41.440Z,61.40
2018-12-27T15:38:07.779Z,61.30
2018-12-27T15:40:34.031Z,62.10
2018-12-27T15:43:01.112Z,61.10
2018-12-27T15:45:27.569Z,61.10
2018-12-27T15:47:53.852Z,60.80
2018-12-27T15:50:20.898Z,60.80
2018-12-27T15:52:47.943Z,60.80
2018-12-27T15:55:14.967Z,60.70
2018-12-27T15:57:41.267Z,60.60
2018-12-27T16:00:08.401Z,60.80
2018-12-27T16:02:34.674Z,61.10
2018-12-27T16:05:01.627Z,61.80
2018-12-27T16:07:28.639Z,61.20
2018-12-27T16:09:54.929Z,61.10
2018-12-27T16:12:21.206Z,61.60
2018-12-27T16:14:48.222Z,62.60
2018-12-27T16:17:14.493Z,62.00
2018-12-27T16:19:40.816Z,62.00
2018-12-27T16:22:08.013Z,62.10
2018-12-27T16:24:34.247Z,62.10
2018-12-27T16:27:00.506Z,61.80
2018-12-27T16:29:26.762Z,62.10
2018-12-27T16:31:53.134Z,62.40
2018-12-27T16:34:19.441Z,61.80
2018-12-27T16:36:46.407Z,61.60
2018-12-27T16:39:12.672Z,61.70
2018-12-27T16:41:38.920Z,62.00
2018-12-27T16:44:05.195Z,62.30
2018-12-27T16:46:31.628Z,62.10
2018-12-27T16:48:57.864Z,62.10
2018-12-27T16:51:24.125Z,62.00
2018-12-27T16:53:50.412Z,62.40
2018-12-27T16:56:16.815Z,61.10
2018-12-27T16:58:43.785Z,60.80
2018-12-27T17:01:10.009Z,60.80
2018-12-27T17:03:36.276Z,60.60
2018-12-27T17:06:02.580Z,61.00
2018-12-27T17:08:28.788Z,61.20
2018-12-27T17:10:55.847Z,60.90
2018-12-27T17:13:22.116Z,60.90
2018-12-27T17:15:48.349Z,60.60
2018-12-27T17:18:14.619Z,60.40
2018-12-27T17:20:40.910Z,60.80
2018-12-27T17:23:07.216Z,60.60
2018-12-27T17:25:33.516Z,60.70
2018-12-27T17:27:59.834Z,60.40
2018-12-27T17:30:26.852Z,60.60
2018-12-27T17:32:53.153Z,60.90
2018-12-27T17:35:19.427Z,60.70
2018-12-27T17:37:45.683Z,60.40
2018-12-27T17:40:12.732Z,60.50
2018-12-27T17:42:39.132Z,60.50
2018-12-27T17:45:06.961Z,61.00
2018-12-27T17:47:33.268Z,60.90
2018-12-27T17:49:59.575Z,61.60
2018-12-27T17:52:30.191Z,61.10
2018-12-27T17:54:52.652Z,61.10
2018-12-27T17:57:18.936Z,61.30
2018-12-27T17:59:45.147Z,61.40
2018-12-27T18:02:11.432Z,61.80
2018-12-27T18:04:37.650Z,61.80
2018-12-27T18:07:04.639Z,61.90
2018-12-27T18:09:30.881Z,61.90
2018-12-27T18:11:57.356Z,62.10
2018-12-27T18:14:23.623Z,61.50
2018-12-27T18:16:49.864Z,61.90
2018-12-27T18:19:16.100Z,61.90
2018-12-27T18:21:42.345Z,61.90
2018-12-27T18:24:09.531Z,61.80
2018-12-27T18:26:35.769Z,61.80
2018-12-27T18:29:02.056Z,61.90
2018-12-27T18:31:29.063Z,61.90
2018-12-27T18:33:55.312Z,61.80
2018-12-27T18:36:21.589Z,61.80
2018-12-27T18:38:47.811Z,61.90
2018-12-27T18:41:14.081Z,61.80
2018-12-27T18:43:40.315Z,61.90
2018-12-27T18:46:06.677Z,61.90
2018-12-27T18:48:32.956Z,61.90
2018-12-27T18:50:59.336Z,61.90
2018-12-27T18:53:26.303Z,62.50
2018-12-27T18:55:52.536Z,61.90
2018-12-27T18:58:18.788Z,61.90
2018-12-27T19:00:45.080Z,62.00
2018-12-27T19:03:11.329Z,61.90
2018-12-27T19:05:37.581Z,61.90
2018-12-27T19:08:03.852Z,61.90
2018-12-27T19:10:30.878Z,62.00
2018-12-27T19:13:03.204Z,62.00
2018-12-27T19:15:29.470Z,62.00
2018-12-27T19:17:56.737Z,62.00
2018-12-27T19:20:24.577Z,61.70
2018-12-27T19:22:50.880Z,61.70
2018-12-27T19:25:17.201Z,61.40
2018-12-27T19:27:43.463Z,62.00
2018-12-27T19:30:09.736Z,62.00
2018-12-27T19:32:36.012Z,62.00
2018-12-27T19:35:02.292Z,62.00
2018-12-27T19:37:28.580Z,62.00
2018-12-27T19:39:54.830Z,62.10
2018-12-27T19:42:21.815Z,62.00
2018-12-27T19:44:48.149Z,62.00
2018-12-27T19:47:14.475Z,62.00
2018-12-27T19:49:40.729Z,62.00
2018-12-27T19:52:07.000Z,62.00
2018-12-27T19:54:33.996Z,62.00
2018-12-27T19:57:00.254Z,62.00
2018-12-27T19:59:27.204Z,62.00
2018-12-27T20:01:54.225Z,61.90
2018-12-27T20:04:20.516Z,61.80
2018-12-27T20:06:46.804Z,61.50
2018-12-27T20:09:13.056Z,62.00
2018-12-27T20:11:39.328Z,62.00
2018-12-27T20:14:06.413Z,61.90
2018-12-27T20:16:33.441Z,61.90
2018-12-27T20:18:59.788Z,61.90
2018-12-27T20:21:26.069Z,61.90
2018-12-27T20:23:52.301Z,62.00
2018-12-27T20:26:18.549Z,62.00
2018-12-27T20:28:44.816Z,61.30
2018-12-27T20:31:11.830Z,60.80
2018-12-27T20:33:38.284Z,60.80
2018-12-27T20:36:05.323Z,60.60
2018-12-27T20:38:31.589Z,60.60
2018-12-27T20:40:57.886Z,60.60
2018-12-27T20:43:24.903Z,61.20
2018-12-27T20:45:51.915Z,61.20
2018-12-27T20:48:18.210Z,61.80
2018-12-27T20:50:45.233Z,62.00
2018-12-27T20:53:11.499Z,62.00
2018-12-27T20:55:37.777Z,62.00
2018-12-27T20:58:04.059Z,62.00
2018-12-27T21:00:30.309Z,62.00
2018-12-27T21:02:56.541Z,62.00
2018-12-27T21:05:23.041Z,62.00
2018-12-27T21:07:49.264Z,62.00
2018-12-27T21:10:15.581Z,62.00
2018-12-27T21:12:43.573Z,62.00
2018-12-27T21:15:10.121Z,62.00
2018-12-27T21:17:36.367Z,62.00
2018-12-27T21:20:02.649Z,62.20
2018-12-27T21:22:28.920Z,62.30
2018-12-27T21:24:55.224Z,62.50
2018-12-27T21:27:21.474Z,62.50
2018-12-27T21:29:47.696Z,62.60
2018-12-27T21:32:14.009Z,63.30
2018-12-27T21:34:40.318Z,62.70
2018-12-27T21:37:06.620Z,62.40
2018-12-27T21:39:33.647Z,62.40
2018-12-27T21:41:59.899Z,62.40
2018-12-27T21:44:26.182Z,62.00
2018-12-27T21:46:52.567Z,62.20
2018-12-27T21:49:19.599Z,62.00
2018-12-27T21:51:45.887Z,62.00
2018-12-27T21:54:12.131Z,62.10
2018-12-27T21:56:38.436Z,62.80
2018-12-27T21:59:04.719Z,62.00
2018-12-27T22:01:30.969Z,62.20
2018-12-27T22:03:58.607Z,62.10
2018-12-27T22:06:25.641Z,62.10
2018-12-27T22:08:52.004Z,62.10
2018-12-27T22:11:18.320Z,62.00
2018-12-27T22:13:44.573Z,62.10
2018-12-27T22:16:11.524Z,62.50
2018-12-27T22:18:37.794Z,62.50
2018-12-27T22:21:04.644Z,62.50
2018-12-27T22:23:30.376Z,62.20
2018-12-27T22:25:57.410Z,62.00
2018-12-27T22:28:23.683Z,62.00
2018-12-27T22:30:49.972Z,62.30
2018-12-27T22:33:16.246Z,62.80
2018-12-27T22:35:42.500Z,62.30
2018-12-27T22:38:08.887Z,62.00
2018-12-27T22:40:36.792Z,62.20
2018-12-27T22:43:03.031Z,62.00
2018-12-27T22:45:29.320Z,62.20
2018-12-27T22:47:55.576Z,62.00
2018-12-27T22:50:21.860Z,62.80
2018-12-27T22:52:48.147Z,62.70
2018-12-27T22:55:14.376Z,62.60
2018-12-27T22:57:40.612Z,62.00
2018-12-27T23:00:06.902Z,62.00
2018-12-27T23:02:33.162Z,62.40
2018-12-27T23:05:00.424Z,62.80
2018-12-27T23:07:26.672Z,62.80
2018-12-27T23:09:53.695Z,62.70
2018-12-27T23:12:19.956Z,62.80
2018-12-27T23:14:46.248Z,62.50
2018-12-27T23:17:12.500Z,62.50
2018-12-27T23:19:39.495Z,63.00
2018-12-27T23:22:05.738Z,63.00
2018-12-27T23:24:32.021Z,62.60
2018-12-27T23:26:58.288Z,62.80
2018-12-27T23:29:24.535Z,63.00
2018-12-27T23:31:50.750Z,62.70
2018-12-27T23:34:17.003Z,62.80
2018-12-27T23:36:43.251Z,62.80
2018-12-27T23:39:10.216Z,63.20
2018-12-27T23:41:36.479Z,63.20
2018-12-27T23:44:03.579Z,62.80
2018-12-27T23:46:30.611Z,63.10
2018-12-27T23:48:57.620Z,63.30
2018-12-27T23:51:23.899Z,63.30
2018-12-27T23:53:50.908Z,63.10
2018-12-27T23:56:17.143Z,62.90
2018-12-27T23:58:43.355Z,62.70
